Time;durP1;ratioP1;P1;durP2;ratioP2;P2;SDS_P1;SDS_P2;PMS_P1;PMS_P2;Temp;Humidity;BMP_temperature;BMP_pressure;BME280_temperature;BME280_humidity;BME280_pressure;Samples;Min_cycle;Max_cycle;Signal;HPM_P1;HPM_P2
2023/03/13 00:01:59;;;;;;;;;;;;;;;3.76;72.87;99502.67;134252;1298;22448;-83
2023/03/13 00:05:05;;;;;;;;;;;;;;;3.80;72.97;99502.34;134261;1298;22518;-83
2023/03/13 00:08:05;;;;;;;;;;;;;;;3.83;73.36;99504.52;134278;1296;22523;-82
2023/03/13 00:11:07;;;;;;;;;;;;;;;3.86;73.39;99513.16;134300;1297;22451;-83
2023/03/13 00:14:16;;;;;;;;;;;;;;;3.89;73.71;99514.33;134183;1298;22486;-83
2023/03/13 00:17:17;;;;;;;;;;;;;;;3.93;73.90;99513.14;134269;1297;22411;-83
2023/03/13 00:20:18;;;;;;;;;;;;;;;3.94;74.14;99510.52;134268;1297;23277;-83
2023/03/13 00:23:37;;;;;;;;;;;;;;;3.97;73.94;99510.23;134268;1298;23186;-83
2023/03/13 00:26:38;;;;;;;;;;;;;;;4.01;74.09;99510.98;134273;1297;23147;-83
2023/03/13 00:29:39;;;;;;;;;;;;;;;4.03;74.30;99508.84;134161;1298;22488;-82
2023/03/13 00:32:43;;;;;;;;;;;;;;;4.06;74.64;99509.48;134251;1297;22448;-83
2023/03/13 00:35:44;;;;;;;;;;;;;;;4.08;74.60;99508.23;134034;1301;22583;-83
2023/03/13 00:38:45;;;;;;;;;;;;;;;4.10;74.98;99513.13;134280;1296;22469;-83
2023/03/13 00:41:59;;;;;;;;;;;;;;;;;;;;;
2023/03/13 00:45:04;;;;;;;;;;;;;;;4.16;74.75;99507.19;134265;1297;22445;-83
2023/03/13 00:48:05;;;;;;;;;;;;;;;4.18;74.86;99501.87;134238;1297;23389;-82
2023/03/13 00:51:06;;;;;;;;;;;;;;;4.21;74.92;99505.29;134295;1296;22549;-82
2023/03/13 00:54:06;;;;;;;;;;;;;;;4.23;75.02;99509.95;134178;1297;22450;-83
2023/03/13 00:57:37;;;;;;;;;;;;;;;;;;;;;
2023/03/13 01:00:37;;;;;;;;;;;;;;;4.27;74.99;99511.22;134276;1296;22463;-83
2023/03/13 01:03:42;;;;;;;;;;;;;;;4.28;75.32;99510.92;134278;1298;22432;-83
2023/03/13 01:06:43;;;;;;;;;;;;;;;4.29;75.36;99509.45;134155;1298;22450;-82
2023/03/13 01:09:51;;;;;;;;;;;;;;;4.30;75.35;99511.59;134060;1298;22459;-82
2023/03/13 01:12:59;;;;;;;;;;;;;;;4.31;75.45;99509.47;134097;1298;22464;-82
2023/03/13 01:16:15;;;;;;;;;;;;;;;4.31;75.51;99511.36;134046;1298;22452;-83
2023/03/13 01:19:16;;;;;;;;;;;;;;;4.32;75.84;99510.97;134256;1296;22503;-83
2023/03/13 01:22:18;;;;;;;;;;;;;;;4.32;75.78;99512.64;134118;1302;22464;-83
2023/03/13 01:25:39;;;;;;;;;;;;;;;4.33;75.88;99515.38;134263;1298;22469;-83
2023/03/13 01:28:40;;;;;;;;;;;;;;;4.34;75.87;99511.80;134058;1299;22458;-83
2023/03/13 01:31:42;;;;;;;;;;;;;;;4.34;75.94;99511.24;134283;1297;22519;-83
2023/03/13 01:34:43;;;;;;;;;;;;;;;4.35;75.92;99511.73;134304;1298;22431;-82
2023/03/13 01:37:44;;;;;;;;;;;;;;;4.35;76.14;99504.05;134290;1296;22574;-83
2023/03/13 01:41:25;;;;;;;;;;;;;;;4.35;76.17;99503.67;134075;1301;22457;-82
2023/03/13 01:44:26;;;;;;;;;;;;;;;4.35;76.35;99500.27;134040;1297;23331;-83
2023/03/13 01:47:28;;;;;;;;;;;;;;;4.36;76.49;99496.90;134067;1297;22490;-83
2023/03/13 01:51:24;;;;;;;;;;;;;;;4.35;76.67;99501.33;134260;1296;23129;-82
2023/03/13 01:54:36;;;;;;;;;;;;;;;4.35;76.77;99498.59;134072;1304;22447;-83
2023/03/13 01:57:42;;;;;;;;;;;;;;;4.36;76.90;99506.73;134088;1298;22496;-83
2023/03/13 02:00:44;;;;;;;;;;;;;;;4.37;76.78;99505.02;134038;1300;22426;-84
2023/03/13 02:04:07;;;;;;;;;;;;;;;4.38;77.21;99501.92;134050;1304;22465;-83
2023/03/13 02:07:20;;;;;;;;;;;;;;;4.40;77.04;99507.95;134167;1297;22640;-83
2023/03/13 02:10:24;;;;;;;;;;;;;;;4.41;77.46;99510.64;134284;1297;22450;-83
2023/03/13 02:13:25;;;;;;;;;;;;;;;4.42;77.37;99511.77;134285;1297;23243;-83
2023/03/13 02:16:36;;;;;;;;;;;;;;;;;;;;;
2023/03/13 02:19:56;;;;;;;;;;;;;;;4.42;77.66;99513.17;134290;1297;22507;-83
2023/03/13 02:23:17;;;;;;;;;;;;;;;4.43;77.93;99514.59;134155;1297;22508;-83
2023/03/13 02:26:27;;;;;;;;;;;;;;;4.45;78.16;99521.64;134081;1297;22431;-83
2023/03/13 02:29:30;;;;;;;;;;;;;;;4.45;78.19;99525.98;134075;1298;23101;-83
2023/03/13 02:32:37;;;;;;;;;;;;;;;4.45;78.34;99536.70;134040;1298;22533;-83
2023/03/13 02:36:18;;;;;;;;;;;;;;;4.44;78.72;99537.65;134278;1296;22482;-83
2023/03/13 02:39:40;;;;;;;;;;;;;;;;;;;;;
2023/03/13 02:43:17;;;;;;;;;;;;;;;4.44;79.81;99533.45;134162;1297;22480;-83
2023/03/13 02:46:19;;;;;;;;;;;;;;;4.44;79.88;99535.02;134258;1296;22433;-84
2023/03/13 02:49:35;;;;;;;;;;;;;;;;;;;;;
2023/03/13 02:53:00;;;;;;;;;;;;;;;4.42;80.45;99533.98;134178;1304;23203;-83
2023/03/13 02:56:07;;;;;;;;;;;;;;;4.42;81.43;99532.59;134129;1298;23168;-83
2023/03/13 02:59:09;;;;;;;;;;;;;;;4.40;81.92;99528.01;134006;1297;22465;-83
2023/03/13 03:02:25;;;;;;;;;;;;;;;4.40;82.25;99525.42;134089;1302;22477;-83
2023/03/13 03:06:08;;;;;;;;;;;;;;;4.42;82.81;99524.55;134045;1298;22520;-83
2023/03/13 03:09:28;;;;;;;;;;;;;;;4.46;83.02;99526.98;134042;1297;22460;-83
2023/03/13 03:13:05;;;;;;;;;;;;;;;4.50;82.94;99522.08;134232;1296;22468;-83
2023/03/13 03:16:39;;;;;;;;;;;;;;;4.53;83.29;99522.50;134308;1297;22466;-83
2023/03/13 03:20:10;;;;;;;;;;;;;;;;;;;;;
2023/03/13 03:23:35;;;;;;;;;;;;;;;4.55;83.53;99521.45;134095;1301;22458;-84
2023/03/13 03:26:38;;;;;;;;;;;;;;;4.57;83.83;99519.86;134049;1300;22443;-83
2023/03/13 03:29:52;;;;;;;;;;;;;;;4.58;84.01;99519.20;134076;1298;22466;-83
2023/03/13 03:33:24;;;;;;;;;;;;;;;4.60;83.35;99519.89;134072;1298;22513;-84
2023/03/13 03:36:46;;;;;;;;;;;;;;;;;;;;;
2023/03/13 03:40:20;;;;;;;;;;;;;;;;;;;;;
2023/03/13 03:44:19;;;;;;;;;;;;;;;4.68;83.87;99508.96;134033;1297;23190;-84
2023/03/13 03:47:38;;;;;;;;;;;;;;;4.70;84.20;99501.57;134083;1303;22440;-83
2023/03/13 03:50:40;;;;;;;;;;;;;;;4.73;84.03;99504.50;134061;1296;22429;-84
2023/03/13 03:54:15;;;;;;;;;;;;;;;4.75;83.92;99509.17;134102;1304;22512;-84
2023/03/13 03:57:25;;;;;;;;;;;;;;;;;;;;;
2023/03/13 04:00:45;;;;;;;;;;;;;;;4.84;84.37;99506.91;134067;1298;22483;-84
2023/03/13 04:04:33;;;;;;;;;;;;;;;4.88;83.98;99506.05;134110;1298;22510;-83
2023/03/13 04:08:00;;;;;;;;;;;;;;;4.92;84.02;99501.25;134204;1297;22486;-83
2023/03/13 04:11:27;;;;;;;;;;;;;;;4.97;84.10;99496.34;134073;1298;23180;-83
2023/03/13 04:14:29;;;;;;;;;;;;;;;4.99;83.96;99490.13;134069;1297;23252;-83
2023/03/13 04:17:43;;;;;;;;;;;;;;;;;;;;;
2023/03/13 04:20:45;;;;;;;;;;;;;;;5.05;84.24;99487.30;134096;1304;22470;-83
2023/03/13 04:24:06;;;;;;;;;;;;;;;;;;;;;
2023/03/13 04:27:29;;;;;;;;;;;;;;;5.12;84.24;99481.98;134306;1297;22481;-83
2023/03/13 04:30:33;;;;;;;;;;;;;;;5.17;84.25;99476.33;134134;1298;22451;-81
2023/03/13 04:33:45;;;;;;;;;;;;;;;5.20;84.37;99465.34;134093;1298;23292;-83
2023/03/13 04:36:55;;;;;;;;;;;;;;;5.23;84.43;99456.61;134044;1298;23108;-83
2023/03/13 04:40:28;;;;;;;;;;;;;;;5.26;84.42;99452.48;134054;1298;22480;-83
2023/03/13 04:44:07;;;;;;;;;;;;;;;5.29;84.68;99445.15;133199;1303;22472;-83
2023/03/13 04:47:32;;;;;;;;;;;;;;;5.32;84.22;99443.59;134032;1298;23224;-83
2023/03/13 04:50:58;;;;;;;;;;;;;;;5.35;84.67;99440.34;133936;1297;23210;-81
2023/03/13 04:54:29;;;;;;;;;;;;;;;5.37;84.24;99435.59;133843;1297;22522;-83
2023/03/13 04:57:49;;;;;;;;;;;;;;;5.39;84.68;99438.15;133692;1297;23305;-83
2023/03/13 05:01:13;;;;;;;;;;;;;;;5.42;84.66;99430.88;134084;1297;23227;-83
2023/03/13 05:04:46;;;;;;;;;;;;;;;5.46;84.60;99433.14;133325;1298;25702;-83
2023/03/13 05:08:10;;;;;;;;;;;;;;;5.50;84.52;99434.34;134063;1297;22553;-81
2023/03/13 05:11:22;;;;;;;;;;;;;;;5.52;84.64;99429.96;134009;1300;23264;-82
2023/03/13 05:15:30;;;;;;;;;;;;;;;5.54;84.64;99423.23;134103;1297;22464;-81
2023/03/13 05:18:53;;;;;;;;;;;;;;;5.55;84.46;99419.61;134063;1297;22478;-81
2023/03/13 05:22:28;;;;;;;;;;;;;;;5.57;84.56;99418.02;133809;1297;22465;-81
2023/03/13 05:26:04;;;;;;;;;;;;;;;5.59;84.95;99411.17;134112;1297;22430;-82
2023/03/13 05:29:40;;;;;;;;;;;;;;;5.59;84.65;99408.98;133769;1297;22462;-82
2023/03/13 05:32:51;;;;;;;;;;;;;;;5.63;84.69;99407.20;134073;1297;22489;-80
2023/03/13 05:40:00;;;;;;;;;;;;;;;;;;;;;
2023/03/13 05:43:21;;;;;;;;;;;;;;;5.72;85.10;99401.27;134115;1296;22441;-82
2023/03/13 05:46:57;;;;;;;;;;;;;;;5.76;84.73;99404.41;134245;1297;22486;-80
2023/03/13 05:50:29;;;;;;;;;;;;;;;5.80;84.61;99402.04;134133;1304;22484;-82
2023/03/13 05:53:48;;;;;;;;;;;;;;;5.86;84.47;99404.09;134167;1297;22486;-84
2023/03/13 05:57:41;;;;;;;;;;;;;;;5.90;84.60;99395.23;133973;1297;22482;-91
2023/03/13 06:01:20;;;;;;;;;;;;;;;5.95;84.69;99398.32;134273;1298;22475;-90
2023/03/13 06:04:54;;;;;;;;;;;;;;;6.01;84.59;99385.05;133295;1303;22453;-87
2023/03/13 06:08:21;;;;;;;;;;;;;;;6.06;84.47;99386.45;133311;1303;22482;-88
2023/03/13 06:11:34;;;;;;;;;;;;;;;;;;;;;
2023/03/13 06:14:38;;;;;;;;;;;;;;;6.16;84.26;99378.79;133297;1303;22503;-84
2023/03/13 06:18:01;;;;;;;;;;;;;;;6.19;84.44;99380.20;133332;1303;22562;-83
2023/03/13 06:21:25;;;;;;;;;;;;;;;6.23;84.14;99380.02;133300;1303;22480;-86
2023/03/13 06:24:52;;;;;;;;;;;;;;;6.25;83.97;99376.97;133316;1303;22510;-85
2023/03/13 06:27:53;;;;;;;;;;;;;;;6.30;84.04;99375.27;133364;1303;22475;-86
2023/03/13 06:31:17;;;;;;;;;;;;;;;;;;;;;
2023/03/13 06:34:38;;;;;;;;;;;;;;;6.40;83.71;99367.58;134403;1297;22445;-88
2023/03/13 06:37:56;;;;;;;;;;;;;;;6.45;83.77;99359.66;134360;1298;22457;-89
2023/03/13 06:44:59;;;;;;;;;;;;;;;6.60;83.42;99356.83;134423;1297;22493;-91
2023/03/13 06:47:59;;;;;;;;;;;;;;;6.70;83.43;99356.70;134438;1298;22441;-88
2023/03/13 06:52:05;;;;;;;;;;;;;;;6.79;83.34;99361.34;134329;1298;22527;-89
2023/03/13 06:56:07;;;;;;;;;;;;;;;6.93;83.05;99352.45;134264;1301;22427;-82
2023/03/13 06:59:34;;;;;;;;;;;;;;;;;;;;;
2023/03/13 07:02:45;;;;;;;;;;;;;;;7.28;82.62;99341.76;134370;1295;22469;-89
2023/03/13 07:05:48;;;;;;;;;;;;;;;7.50;82.51;99337.27;134463;1297;22514;-91
2023/03/13 07:08:49;;;;;;;;;;;;;;;7.76;82.33;99341.98;134494;1296;25430;-87
2023/03/13 07:12:30;;;;;;;;;;;;;;;8.06;81.70;99342.92;134505;1298;22553;-90
2023/03/13 07:15:51;;;;;;;;;;;;;;;8.35;80.97;99337.52;134517;1297;22478;-81
2023/03/13 07:23:34;;;;;;;;;;;;;;;8.88;78.66;99320.20;134311;1296;22488;-92
2023/03/13 07:26:39;;;;;;;;;;;;;;;9.16;78.86;99314.02;134505;1296;22530;-90
2023/03/13 07:30:41;;;;;;;;;;;;;;;9.60;78.15;99316.79;134497;1298;22451;-88
2023/03/13 07:33:52;;;;;;;;;;;;;;;;;;;;;
2023/03/13 07:37:33;;;;;;;;;;;;;;;10.55;76.48;99300.98;134462;1296;22489;-93
2023/03/13 07:40:46;;;;;;;;;;;;;;;;;;;;;
2023/03/13 07:48:37;;;;;;;;;;;;;;;11.16;72.82;99290.23;134362;1296;22472;-89
2023/03/13 07:51:32;;;;;;;;;;;;;;;11.36;72.77;99277.86;134508;1296;23281;-91
2023/03/13 07:54:44;;;;;;;;;;;;;;;11.52;71.63;99274.08;134521;1297;22991;-92
2023/03/13 07:58:18;;;;;;;;;;;;;;;11.71;71.67;99267.27;134443;1298;22437;-89
2023/03/13 08:02:37;;;;;;;;;;;;;;;11.84;70.73;99259.20;134434;1297;22498;-93
2023/03/13 08:06:15;;;;;;;;;;;;;;;11.95;69.39;99253.45;134418;1297;24552;-91
2023/03/13 08:09:17;;;;;;;;;;;;;;;11.83;68.75;99255.69;134474;1297;22549;-84
2023/03/13 08:12:38;;;;;;;;;;;;;;;11.63;68.05;99260.80;134337;1297;22464;-84
2023/03/13 08:15:38;;;;;;;;;;;;;;;11.47;68.87;99260.61;134522;1297;22478;-82
2023/03/13 08:18:48;;;;;;;;;;;;;;;11.26;68.04;99265.59;134545;1297;22448;-92
2023/03/13 08:25:53;;;;;;;;;;;;;;;;;;;;;
2023/03/13 08:29:39;;;;;;;;;;;;;;;10.81;68.82;99257.17;134527;1297;22486;-92
2023/03/13 08:32:56;;;;;;;;;;;;;;;10.79;68.68;99254.02;134452;1297;23247;-82
2023/03/13 08:35:56;;;;;;;;;;;;;;;10.73;69.02;99250.41;134477;1297;22471;-85
2023/03/13 08:39:01;;;;;;;;;;;;;;;10.67;68.05;99239.86;134528;1296;23125;-89
2023/03/13 08:42:09;;;;;;;;;;;;;;;10.62;68.31;99227.07;134535;1296;22399;-91
2023/03/13 08:45:10;;;;;;;;;;;;;;;10.63;68.16;99219.90;134486;1297;22399;-89
2023/03/13 08:48:13;;;;;;;;;;;;;;;10.60;68.19;99217.02;134568;1293;22494;-93
2023/03/13 08:51:14;;;;;;;;;;;;;;;10.70;68.40;99220.95;134552;1296;22447;-83
2023/03/13 08:54:17;;;;;;;;;;;;;;;10.84;67.86;99218.34;134460;1297;22460;-88
2023/03/13 08:57:17;;;;;;;;;;;;;;;10.92;68.10;99214.66;134452;1294;22454;-91
2023/03/13 09:00:28;;;;;;;;;;;;;;;;;;;;;
2023/03/13 09:04:11;;;;;;;;;;;;;;;10.96;67.59;99211.75;134412;1297;22458;-90
2023/03/13 09:07:13;;;;;;;;;;;;;;;10.88;67.37;99205.64;134525;1297;22474;-90
2023/03/13 09:10:14;;;;;;;;;;;;;;;10.79;67.75;99200.34;134550;1297;22433;-91
2023/03/13 09:13:15;;;;;;;;;;;;;;;10.74;67.29;99194.29;134502;1297;22553;-91
2023/03/13 09:16:24;;;;;;;;;;;;;;;10.70;67.53;99194.75;134499;1298;22472;-91
2023/03/13 09:19:24;;;;;;;;;;;;;;;10.73;68.03;99194.88;134514;1298;22440;-88
2023/03/13 09:22:25;;;;;;;;;;;;;;;10.79;67.89;99206.25;134516;1301;22450;-88
2023/03/13 09:25:36;;;;;;;;;;;;;;;;;;;;;
2023/03/13 09:28:49;;;;;;;;;;;;;;;10.87;67.42;99178.69;134520;1297;22440;-88
2023/03/13 09:32:55;;;;;;;;;;;;;;;10.90;67.29;99176.55;134576;1289;22473;-81
2023/03/13 09:36:10;;;;;;;;;;;;;;;10.95;67.02;99171.25;134497;1297;22539;-88
2023/03/13 09:39:42;;;;;;;;;;;;;;;11.05;66.88;99162.95;134537;1297;22528;-92
2023/03/13 09:42:50;;;;;;;;;;;;;;;11.08;66.99;99150.42;134540;1295;22483;-82
2023/03/13 09:45:53;;;;;;;;;;;;;;;11.10;66.87;99148.00;134458;1298;23108;-88
2023/03/13 09:48:56;;;;;;;;;;;;;;;11.12;66.60;99142.42;134363;1297;23177;-87
2023/03/13 09:52:22;;;;;;;;;;;;;;;11.11;66.46;99142.94;134320;1297;22544;-91
2023/03/13 09:55:44;;;;;;;;;;;;;;;11.09;66.52;99132.09;134361;1295;22491;-91
2023/03/13 09:59:15;;;;;;;;;;;;;;;11.09;66.59;99123.75;134377;1297;23306;-83
2023/03/13 10:02:30;;;;;;;;;;;;;;;11.11;66.93;99116.52;134444;1295;22475;-92
2023/03/13 10:05:31;;;;;;;;;;;;;;;11.14;66.39;99102.85;134335;1297;22432;-82
2023/03/13 10:09:02;;;;;;;;;;;;;;;;;;;;;
2023/03/13 10:12:49;;;;;;;;;;;;;;;11.08;66.13;99084.88;134258;1297;22457;-89
2023/03/13 10:16:08;;;;;;;;;;;;;;;11.05;65.66;99078.23;134048;1298;22579;-91
2023/03/13 10:19:14;;;;;;;;;;;;;;;11.02;65.88;99074.67;134271;1303;23368;-89
2023/03/13 10:22:19;;;;;;;;;;;;;;;11.02;65.58;99069.73;134306;1285;22488;-90
2023/03/13 10:25:33;;;;;;;;;;;;;;;11.03;65.55;99068.88;134287;1298;22531;-89
2023/03/13 10:28:34;;;;;;;;;;;;;;;11.07;65.55;99069.34;134285;1298;23136;-90
2023/03/13 10:31:36;;;;;;;;;;;;;;;11.08;65.21;99064.90;134267;1296;22378;-90
2023/03/13 10:34:55;;;;;;;;;;;;;;;11.07;65.85;99064.87;134259;1298;22515;-87
2023/03/13 10:38:24;;;;;;;;;;;;;;;11.03;65.76;99052.96;134261;1298;23208;-90
2023/03/13 10:41:33;;;;;;;;;;;;;;;10.91;65.98;99046.68;134273;1297;22454;-89
2023/03/13 10:44:44;;;;;;;;;;;;;;;10.81;66.33;99041.52;134300;1297;22474;-89
2023/03/13 10:48:04;;;;;;;;;;;;;;;10.68;66.63;99038.61;134273;1301;22494;-87
2023/03/13 10:51:19;;;;;;;;;;;;;;;10.59;67.32;99036.66;134292;1297;22453;-90
2023/03/13 10:54:27;;;;;;;;;;;;;;;10.50;67.58;99040.71;134192;1297;22614;-91
2023/03/13 10:57:50;;;;;;;;;;;;;;;10.45;67.91;99032.39;134151;1297;23052;-82
2023/03/13 11:00:50;;;;;;;;;;;;;;;10.42;68.00;99030.86;134292;1298;22466;-90
2023/03/13 11:03:53;;;;;;;;;;;;;;;10.40;68.26;99031.95;134274;1297;22501;-89
2023/03/13 11:07:24;;;;;;;;;;;;;;;10.39;68.58;99032.42;134130;1298;23662;-83
2023/03/13 11:10:36;;;;;;;;;;;;;;;10.37;69.05;99026.13;134052;1297;23533;-89
2023/03/13 11:14:04;;;;;;;;;;;;;;;10.35;69.44;99027.09;134152;1298;22478;-90
2023/03/13 11:17:14;;;;;;;;;;;;;;;10.34;69.91;99035.38;134187;1297;22498;-89
2023/03/13 11:24:09;;;;;;;;;;;;;;;10.33;70.69;99032.46;134214;1298;22676;-85
2023/03/13 11:27:12;;;;;;;;;;;;;;;10.33;70.80;99031.94;134308;1296;22462;-87
2023/03/13 11:30:52;;;;;;;;;;;;;;;;;;;;;
2023/03/13 11:35:17;;;;;;;;;;;;;;;10.34;71.14;99031.67;134251;1298;22689;-89
2023/03/13 11:38:25;;;;;;;;;;;;;;;10.39;70.81;99027.09;134186;1298;22585;-89
2023/03/13 11:41:52;;;;;;;;;;;;;;;10.46;70.73;99029.89;134088;1299;22549;-91
2023/03/13 11:45:39;;;;;;;;;;;;;;;10.58;70.53;99019.44;134142;1296;22472;-91
2023/03/13 11:49:28;;;;;;;;;;;;;;;10.74;70.19;99002.20;134064;1296;22467;-88
2023/03/13 11:53:18;;;;;;;;;;;;;;;10.90;69.62;98995.88;134215;1304;23185;-89
2023/03/13 11:56:27;;;;;;;;;;;;;;;11.05;69.15;98986.36;134145;1297;22481;-89
2023/03/13 12:00:05;;;;;;;;;;;;;;;11.13;68.76;98979.73;134253;1298;23091;-90
2023/03/13 12:03:21;;;;;;;;;;;;;;;11.17;68.41;98965.54;134230;1298;22437;-85
2023/03/13 12:06:52;;;;;;;;;;;;;;;11.21;68.35;98966.08;134249;1297;22447;-87
2023/03/13 12:09:55;;;;;;;;;;;;;;;11.24;68.49;98968.22;134208;1297;22476;-89
2023/03/13 12:13:02;;;;;;;;;;;;;;;11.23;68.50;98969.93;134256;1297;22467;-83
2023/03/13 12:16:25;;;;;;;;;;;;;;;11.20;68.21;98968.09;134276;1298;22439;-92
2023/03/13 12:19:44;;;;;;;;;;;;;;;11.18;68.20;98964.57;134218;1297;22485;-87
2023/03/13 12:22:48;;;;;;;;;;;;;;;11.17;68.24;98958.80;134112;1295;22478;-83
2023/03/13 12:25:59;;;;;;;;;;;;;;;11.19;68.50;98955.90;134223;1297;22653;-83
2023/03/13 12:29:31;;;;;;;;;;;;;;;;;;;;;
2023/03/13 12:32:47;;;;;;;;;;;;;;;11.21;68.47;98954.20;134237;1297;23282;-83
2023/03/13 12:35:51;;;;;;;;;;;;;;;11.18;68.75;98954.27;134208;1298;23329;-83
2023/03/13 12:38:56;;;;;;;;;;;;;;;11.16;69.05;98951.20;134226;1297;22567;-82
2023/03/13 12:42:09;;;;;;;;;;;;;;;11.12;69.22;98954.25;134245;1298;23155;-83
2023/03/13 12:45:31;;;;;;;;;;;;;;;11.10;69.46;98948.04;134230;1298;22436;-83
2023/03/13 12:48:50;;;;;;;;;;;;;;;11.09;69.59;98945.98;134234;1297;22443;-83
2023/03/13 12:52:21;;;;;;;;;;;;;;;11.08;70.00;98942.79;134223;1297;22473;-83
2023/03/13 12:55:26;;;;;;;;;;;;;;;11.08;70.24;98939.29;134182;1297;23200;-83
2023/03/13 12:58:36;;;;;;;;;;;;;;;11.08;70.50;98939.77;134124;1298;23240;-83
2023/03/13 13:01:41;;;;;;;;;;;;;;;11.09;70.72;98935.48;134282;1298;22442;-83
2023/03/13 13:04:44;;;;;;;;;;;;;;;11.12;70.92;98924.27;134004;1298;22427;-83
2023/03/13 13:07:52;;;;;;;;;;;;;;;11.19;71.17;98918.73;134021;1301;22470;-83
2023/03/13 13:10:53;;;;;;;;;;;;;;;11.26;71.38;98921.48;134258;1298;22451;-83
2023/03/13 13:13:56;;;;;;;;;;;;;;;11.30;71.39;98916.27;134286;1297;22460;-83
2023/03/13 13:17:00;;;;;;;;;;;;;;;11.30;71.43;98911.25;134276;1293;23125;-83
2023/03/13 13:20:29;;;;;;;;;;;;;;;;;;;;;
2023/03/13 13:23:38;;;;;;;;;;;;;;;11.30;71.49;98914.27;134247;1295;22515;-83
2023/03/13 13:26:46;;;;;;;;;;;;;;;11.32;71.64;98912.51;134248;1298;22415;-83
2023/03/13 13:29:54;;;;;;;;;;;;;;;11.31;71.72;98913.29;134154;1298;22512;-83
2023/03/13 13:32:56;;;;;;;;;;;;;;;11.28;71.86;98915.34;134267;1298;22435;-83
2023/03/13 13:36:09;;;;;;;;;;;;;;;11.25;71.96;98913.33;134229;1297;23199;-83
2023/03/13 13:39:52;;;;;;;;;;;;;;;;;;;;;
2023/03/13 13:43:06;;;;;;;;;;;;;;;11.19;72.14;98911.95;133948;1299;23469;-82
2023/03/13 13:46:09;;;;;;;;;;;;;;;11.19;72.37;98905.22;134296;1297;22504;-83
2023/03/13 13:49:09;;;;;;;;;;;;;;;11.20;72.47;98906.48;134133;1298;22424;-83
2023/03/13 13:52:10;;;;;;;;;;;;;;;11.23;72.50;98907.96;134234;1298;22488;-83
2023/03/13 13:55:32;;;;;;;;;;;;;;;11.26;72.74;98899.06;134092;1298;22435;-83
2023/03/13 13:58:38;;;;;;;;;;;;;;;11.30;72.61;98898.79;134180;1297;22490;-83
2023/03/13 14:01:50;;;;;;;;;;;;;;;;;;;;;
2023/03/13 14:05:00;;;;;;;;;;;;;;;11.31;72.61;98894.49;134181;1298;22528;-83
2023/03/13 14:08:44;;;;;;;;;;;;;;;;;;;;;
2023/03/13 14:12:04;;;;;;;;;;;;;;;11.33;72.76;98893.73;133798;1296;22483;-83
2023/03/13 14:15:25;;;;;;;;;;;;;;;11.34;72.55;98891.45;134237;1304;23292;-83
2023/03/13 14:18:40;;;;;;;;;;;;;;;11.35;72.56;98887.04;134272;1299;23237;-82
2023/03/13 14:21:41;;;;;;;;;;;;;;;11.36;72.76;98882.70;134264;1297;22468;-83
2023/03/13 14:28:27;;;;;;;;;;;;;;;11.37;72.77;98888.02;134069;1298;22553;-83
2023/03/13 14:31:29;;;;;;;;;;;;;;;11.37;72.61;98892.26;134137;1298;172625;-83
2023/03/13 14:34:30;;;;;;;;;;;;;;;11.38;72.67;98901.59;134255;1298;22462;-83
2023/03/13 14:37:50;;;;;;;;;;;;;;;11.38;72.79;98897.33;134268;1299;23289;-83
2023/03/13 14:41:27;;;;;;;;;;;;;;;11.41;72.86;98885.08;134175;1303;22469;-83
2023/03/13 14:44:42;;;;;;;;;;;;;;;11.44;72.81;98881.98;134243;1303;22452;-84
2023/03/13 14:48:01;;;;;;;;;;;;;;;11.49;72.85;98883.49;134308;1301;22560;-79
2023/03/13 14:51:16;;;;;;;;;;;;;;;11.54;72.84;98886.96;134246;1298;22460;-83
2023/03/13 14:54:38;;;;;;;;;;;;;;;11.59;72.76;98886.52;134131;1297;22463;-84
2023/03/13 14:57:58;;;;;;;;;;;;;;;11.63;72.62;98880.41;134121;1296;22483;-83
2023/03/13 15:01:44;;;;;;;;;;;;;;;;;;;;;
2023/03/13 15:04:58;;;;;;;;;;;;;;;11.70;72.62;98880.11;134265;1297;22613;-83
2023/03/13 15:07:59;;;;;;;;;;;;;;;11.74;72.50;98870.11;134255;1298;22463;-83
2023/03/13 15:11:22;;;;;;;;;;;;;;;11.77;72.37;98867.57;134238;1298;22462;-83
2023/03/13 15:14:40;;;;;;;;;;;;;;;11.81;72.37;98871.67;134229;1298;22463;-84
2023/03/13 15:17:46;;;;;;;;;;;;;;;11.84;72.26;98873.55;134265;1298;22478;-84
2023/03/13 15:20:51;;;;;;;;;;;;;;;11.86;72.11;98869.86;134260;1297;22628;-84
2023/03/13 15:24:01;;;;;;;;;;;;;;;11.91;72.10;98867.27;134272;1298;22453;-84
2023/03/13 15:27:23;;;;;;;;;;;;;;;12.02;71.81;98862.42;134158;1292;22478;-84
2023/03/13 15:30:55;;;;;;;;;;;;;;;;;;;;;
2023/03/13 15:33:57;;;;;;;;;;;;;;;12.14;71.43;98875.75;134205;1298;22494;-84
2023/03/13 15:37:00;;;;;;;;;;;;;;;12.13;71.11;98880.05;134256;1298;24627;-83
2023/03/13 15:40:14;;;;;;;;;;;;;;;12.08;70.81;98874.73;134264;1297;22462;-83
2023/03/13 15:43:36;;;;;;;;;;;;;;;12.02;71.01;98859.78;134265;1297;22487;-84
2023/03/13 15:46:56;;;;;;;;;;;;;;;11.98;70.96;98852.75;134258;1298;23224;-84
2023/03/13 15:50:16;;;;;;;;;;;;;;;11.93;70.88;98847.40;134256;1298;22471;-83
2023/03/13 15:53:36;;;;;;;;;;;;;;;;;;;;;
2023/03/13 15:56:51;;;;;;;;;;;;;;;11.83;70.83;98850.00;134146;1297;22491;-84
2023/03/13 16:00:15;;;;;;;;;;;;;;;11.80;70.87;98848.92;134276;1297;23400;-84
2023/03/13 16:03:59;;;;;;;;;;;;;;;11.78;70.89;98841.41;134297;1297;22467;-79
2023/03/13 16:06:59;;;;;;;;;;;;;;;11.76;71.01;98836.63;134177;1297;22451;-83
2023/03/13 16:10:40;;;;;;;;;;;;;;;11.76;70.94;98828.81;134254;1298;23142;-84
2023/03/13 16:13:48;;;;;;;;;;;;;;;11.77;70.93;98821.65;134228;1298;22479;-83
2023/03/13 16:17:12;;;;;;;;;;;;;;;11.76;70.68;98815.20;134277;1298;22493;-83
2023/03/13 16:20:20;;;;;;;;;;;;;;;11.75;70.73;98801.88;134149;1298;23703;-83
2023/03/13 16:23:31;;;;;;;;;;;;;;;11.73;71.01;98798.23;134297;1295;23155;-77
2023/03/13 16:26:32;;;;;;;;;;;;;;;11.70;70.72;98803.39;134259;1285;22604;-83
2023/03/13 16:29:44;;;;;;;;;;;;;;;;;;;;;
2023/03/13 16:32:45;;;;;;;;;;;;;;;11.58;70.87;98806.59;134289;1297;22479;-83
2023/03/13 16:35:45;;;;;;;;;;;;;;;11.52;70.95;98800.70;134266;1298;22580;-84
2023/03/13 16:38:54;;;;;;;;;;;;;;;11.48;71.13;98791.48;134072;1298;22534;-83
2023/03/13 16:41:58;;;;;;;;;;;;;;;11.44;71.15;98780.89;134291;1298;22478;-82
2023/03/13 16:45:13;;;;;;;;;;;;;;;11.38;71.20;98780.20;134285;1297;23477;-83
2023/03/13 16:48:16;;;;;;;;;;;;;;;11.32;71.31;98789.75;134192;1298;23200;-84
2023/03/13 16:51:39;;;;;;;;;;;;;;;11.26;71.40;98796.00;134267;1298;22441;-83
2023/03/13 16:55:08;;;;;;;;;;;;;;;11.22;71.56;98792.15;134253;1296;23125;-84
2023/03/13 16:58:11;;;;;;;;;;;;;;;11.20;71.56;98786.50;134289;1297;22471;-84
2023/03/13 17:01:39;;;;;;;;;;;;;;;;;;;;;
2023/03/13 17:04:40;;;;;;;;;;;;;;;11.14;72.01;98765.60;134280;1297;22536;-84
2023/03/13 17:08:04;;;;;;;;;;;;;;;11.10;71.95;98760.05;134306;1296;23194;-85
2023/03/13 17:11:08;;;;;;;;;;;;;;;11.06;71.97;98759.39;134194;1296;22481;-86
2023/03/13 17:14:09;;;;;;;;;;;;;;;11.01;72.10;98758.61;134295;1297;22468;-85
2023/03/13 17:17:21;;;;;;;;;;;;;;;10.96;72.22;98767.17;134291;1296;23173;-82
2023/03/13 17:20:24;;;;;;;;;;;;;;;10.91;72.28;98771.04;134165;1297;22458;-85
2023/03/13 17:23:27;;;;;;;;;;;;;;;10.85;72.34;98772.19;134305;1296;22518;-85
2023/03/13 17:26:35;;;;;;;;;;;;;;;10.80;72.76;98772.21;134286;1297;22485;-85
2023/03/13 17:29:35;;;;;;;;;;;;;;;10.76;72.89;98778.28;134163;1298;23075;-85
2023/03/13 17:32:36;;;;;;;;;;;;;;;10.73;72.95;98772.32;134272;1297;22434;-85
2023/03/13 17:36:41;;;;;;;;;;;;;;;10.72;72.92;98761.16;134277;1297;23333;-84
2023/03/13 17:39:23;;;;;;;;;;;;;;;10.68;72.90;98750.55;133904;1297;22468;-82
2023/03/13 17:42:23;;;;;;;;;;;;;;;10.68;73.10;98750.48;133993;1298;22523;-86
2023/03/13 17:45:27;;;;;;;;;;;;;;;10.69;73.15;98759.41;133984;1298;22446;-86
2023/03/13 17:48:30;;;;;;;;;;;;;;;10.71;73.14;98771.26;133999;1297;22489;-86
2023/03/13 17:51:51;;;;;;;;;;;;;;;10.72;73.09;98783.66;133965;1298;22532;-86
2023/03/13 17:54:52;;;;;;;;;;;;;;;10.74;73.01;98785.54;134037;1298;22545;-85
2023/03/13 17:57:53;;;;;;;;;;;;;;;10.74;72.94;98780.52;133988;1297;22452;-86
2023/03/13 18:01:22;;;;;;;;;;;;;;;10.76;73.12;98774.85;134027;1300;22484;-86
2023/03/13 18:04:33;;;;;;;;;;;;;;;;;;;;;
2023/03/13 18:07:43;;;;;;;;;;;;;;;10.71;73.00;98752.08;134003;1298;22457;-84
2023/03/13 18:11:05;;;;;;;;;;;;;;;;;;;;;
2023/03/13 18:14:46;;;;;;;;;;;;;;;;;;;;;